Aérodrome :
LOGIN :

S'inscrire | Disclaimer

   EN    FR    IT 

 










Légende :    VFR   VFR Marginal   IFR   IFR Intensif   IFR Très Intensif
Visi : 
Plafond : 
>= 8 km
>= 3000ft
5 à 8 km
1000 à 3000 ft
1500m à 5 km
500 à 1000 ft
800 à 1500m
200 à 500 ft
< 800m
< 200 ft
Symboles :   Orages  Brouillard  Fortes neiges  Fortes précipitations  Vent > 20 kt
SIGMETs :   Divers  Orages  Givrage  Turbulence  Onde Orograph.  Cendres Volcan.







- Altitude de l'aérodrome : 1090 ft
- Code IATA : CFE
- Voir les cartes d'approche


LFLC - Clermont-Ferrand Auvergne

DERNIER METAR :
  • 211000Z AUTO VRB02KT 9999 -RA SCT037/// BKN043/// BKN056/// ///TCU 08/04 Q1019 TEMPO RA SCT030 OVC040

METARs EXPIRÉS :
  • 210930Z AUTO 28005KT 260V320 9999 -RA FEW049/// SCT064/// OVC076/// ///CB 08/04 Q1019 TEMPO RA SCT030 OVC040
  • 210900Z AUTO 31005KT 9999 -RA BKN046/// OVC052/// ///TCU 09/04 Q1019 BECMG FEW050 OVC070
  • 210830Z AUTO 31005KT 260V020 9999 -RA FEW037/// BKN050/// OVC062/// ///TCU 09/04 Q1019 BECMG FEW050 OVC070
  • 210800Z AUTO VRB01KT 9999 ///TCU 08/06 Q1018 TEMPO 4000 RA BKN013
  • 210730Z AUTO 02004KT 350V050 9999 FEW052 OVC072 08/06 Q1018 TEMPO 4000 RA BKN013
  • 210700Z AUTO 01007KT 9999 FEW035 OVC076 09/05 Q1018 TEMPO 4000 RA BKN013

TAF AMD TAF LFLC
Valide du 21 à 09h jusqu'au 22 à 09h UTC


210855Z 2109/2209 02004KT 9999 FEW050 OVC070
PROB30
TEMPO 2109/2120 RA SCT030 OVC040
BECMG 2207/2209 20012KT
ATIS : +33 4 73 62 74 38
Pas de NOTAMs connus pour ce terrain.
5 SIGMETs publiés pour la FIR Marseille (LFMM) :
 
Givrage fort
LFMM SIGMET 9 VALID 210900/211300 LFPW
LFMM MARSEILLE FIR/UIR SEV ICE OBS AT 0900Z WI N4630 E00345 - N4630 E00545 - N4530 E00545 - N4530 E00345 - N4630 E00345 FL140/240 MOV E 10KT WKN=
Turbulence forte
LFMM SIGMET 8 VALID 210700/211100 LFPW
LFMM MARSEILLE FIR/UIR SEV TURB FCST WI N4415 E00700 - N4400 E00700 - N4315 E00945 - N4115 E00945 - N4115 E00800 - N4100 E00800 - N4100 E00530 - N4415 E00530 - N4415 E00700 SFC/FL060 STNR WKN=
Annulation du SIGMET 6 
LFMM SIGMET 7 VALID 210635/211100 LFPW
LFMM MARSEILLE FIR/UIR CNL SIGMET 6 210700/211100=
SIGMET 6  ANNULÉ :
Turbulence forte
LFMM SIGMET 6 VALID 210700/211100 LFPW
LFMM MARSEILLE FIR/UIR SEV TURB FCST WI N4430 E00700 - N4400 E00700 - N4315 E00945 - N4115 E00945 - N4115 E00800 - N4045 E00800 - N4315 E00515 - N4430 E00700 SFC/FL060 STNR WKN=
Turbulence forte
LFMM SIGMET 10 VALID 211000/211400 LFPW
LFMM MARSEILLE FIR/UIR SEV TURB FCST WI N4215 E00330 - N4215 E00230 - N4330 E00245 - N4430 E00345 - N4430 E00400 - N4330 E00300 - N4330 E00330 - N4215 E00330 SFC/FL150 STNR INTSF=



MET'MAP, la Météo Aéronautique d'un coup d'oeil ! - Copyright ORBIFLY Décembre 2007 - Disclaimer

ORBIFLY MET'MAP TEAM :

Programmation & Développement : Alexandra Zaïnal
Conception & Développement : Baudouin d'Aumeries
Co-Programmation & Développement : Marc-Olivier Méhu
Soutien technique & logistique : Manuel Goepfert

Contact : metmap@orbifly.com




SOURCES & CREDITS :

   NOAA